createdAt,value
2019-01-04T00:00:19.899Z,6.70
2019-01-04T00:02:51.007Z,6.63
2019-01-04T00:05:20.411Z,6.80
2019-01-04T00:07:49.746Z,6.73
2019-01-04T00:10:19.318Z,6.60
2019-01-04T00:12:48.991Z,7.20
2019-01-04T00:15:18.654Z,6.33
2019-01-04T00:17:48.171Z,6.37
2019-01-04T00:20:17.839Z,6.03
2019-01-04T00:22:47.284Z,6.60
2019-01-04T00:25:16.735Z,6.17
2019-01-04T00:27:46.615Z,6.53
2019-01-04T00:30:15.975Z,6.30
2019-01-04T00:32:45.727Z,6.30
2019-01-04T00:35:15.263Z,6.13
2019-01-04T00:37:44.574Z,6.57
2019-01-04T00:40:13.920Z,6.63
2019-01-04T00:42:43.504Z,7.33
2019-01-04T00:45:12.914Z,6.10
2019-01-04T00:47:42.554Z,6.63
2019-01-04T00:50:12.174Z,6.80
2019-01-04T00:52:41.755Z,6.67
2019-01-04T00:55:14.534Z,7.30
2019-01-04T00:58:15.942Z,7.10
2019-01-04T01:01:06.462Z,6.73
2019-01-04T01:03:47.984Z,7.20
2019-01-04T01:06:43.744Z,7.13
2019-01-04T01:09:31.251Z,7.40
2019-01-04T01:12:29.906Z,6.43
2019-01-04T01:15:28.469Z,7.10
2019-01-04T01:18:34.434Z,6.80
2019-01-04T01:21:34.296Z,8.17
2019-01-04T01:24:29.497Z,7.50
2019-01-04T01:27:33.574Z,7.43
2019-01-04T01:30:17.718Z,6.57
2019-01-04T01:32:59.079Z,6.40
2019-01-04T01:35:37.318Z,6.67
2019-01-04T01:38:25.241Z,6.13
2019-01-04T01:41:10.120Z,6.10
2019-01-04T01:44:01.979Z,6.17
2019-01-04T01:46:47.485Z,6.73
2019-01-04T01:49:40.844Z,5.90
2019-01-04T01:52:22.803Z,6.00
2019-01-04T01:54:52.198Z,5.40
2019-01-04T01:57:21.503Z,5.70
2019-01-04T01:59:51.008Z,6.20
2019-01-04T02:02:20.305Z,5.93
2019-01-04T02:04:49.607Z,5.73
2019-01-04T02:07:19.165Z,5.83
2019-01-04T02:09:48.639Z,5.33
2019-01-04T02:12:18.003Z,4.87
2019-01-04T02:14:47.721Z,5.30
2019-01-04T02:17:17.147Z,5.73
2019-01-04T02:19:46.581Z,4.70
2019-01-04T02:22:16.010Z,5.57
2019-01-04T02:24:45.418Z,4.80
2019-01-04T02:27:14.961Z,5.13
2019-01-04T02:29:44.535Z,4.40
2019-01-04T02:32:13.935Z,4.70
2019-01-04T02:34:43.300Z,4.30
2019-01-04T02:37:12.804Z,4.00
2019-01-04T02:39:42.208Z,3.87
2019-01-04T02:42:11.960Z,3.63
2019-01-04T02:44:41.682Z,4.23
2019-01-04T02:47:11.116Z,4.40
2019-01-04T02:49:40.731Z,4.03
2019-01-04T02:52:10.175Z,4.10
2019-01-04T02:54:39.591Z,4.00
2019-01-04T02:57:09.008Z,3.70
2019-01-04T02:59:38.890Z,3.80
2019-01-04T03:02:11.828Z,4.30
2019-01-04T03:04:41.523Z,4.33
2019-01-04T03:07:11.014Z,3.67
2019-01-04T03:09:40.508Z,5.03
2019-01-04T03:12:10.308Z,4.50
2019-01-04T03:14:39.975Z,5.10
2019-01-04T03:17:09.623Z,5.10
2019-01-04T03:19:39.034Z,4.43
2019-01-04T03:22:08.648Z,4.80
2019-01-04T03:24:38.169Z,5.17
2019-01-04T03:27:08.193Z,4.07
2019-01-04T03:29:37.715Z,3.13
2019-01-04T03:32:09.469Z,4.30
2019-01-04T03:34:39.160Z,4.07
2019-01-04T03:37:08.479Z,4.27
2019-01-04T03:39:37.822Z,4.33
2019-01-04T03:42:07.438Z,4.30
2019-01-04T03:44:36.927Z,4.70
2019-01-04T03:47:06.536Z,4.40
2019-01-04T03:49:36.001Z,4.20
2019-01-04T03:52:05.577Z,3.30
2019-01-04T03:54:35.486Z,4.70
2019-01-04T03:57:05.104Z,4.27
2019-01-04T03:59:34.557Z,3.67
2019-01-04T04:02:05.615Z,4.23
2019-01-04T04:04:35.226Z,4.30
2019-01-04T04:07:05.992Z,4.17
2019-01-04T04:09:35.486Z,4.27
2019-01-04T04:12:04.942Z,4.83
2019-01-04T04:14:34.372Z,5.10
2019-01-04T04:17:03.700Z,4.37
2019-01-04T04:19:33.125Z,4.80
2019-01-04T04:22:02.809Z,4.87
2019-01-04T04:24:32.330Z,5.43
2019-01-04T04:27:01.927Z,5.37
2019-01-04T04:29:31.341Z,4.80
2019-01-04T04:32:00.824Z,4.87
2019-01-04T04:34:30.318Z,5.60
2019-01-04T04:36:59.718Z,5.67
2019-01-04T04:39:29.367Z,5.37
2019-01-04T04:41:58.875Z,5.20
2019-01-04T04:44:28.444Z,4.57
2019-01-04T04:46:57.906Z,5.07
2019-01-04T04:49:27.258Z,4.50
2019-01-04T04:51:56.676Z,4.80
2019-01-04T04:54:26.085Z,4.30
2019-01-04T04:56:55.849Z,4.17
2019-01-04T04:59:25.140Z,4.60
2019-01-04T05:01:54.755Z,4.50
2019-01-04T05:04:32.889Z,5.40
2019-01-04T05:06:58.719Z,5.13
2019-01-04T05:09:31.216Z,5.20
2019-01-04T05:12:00.686Z,5.33
2019-01-04T05:14:30.112Z,5.67
2019-01-04T05:16:59.511Z,5.83
2019-01-04T05:19:32.951Z,5.47
2019-01-04T05:22:02.524Z,6.13
2019-01-04T05:24:31.979Z,5.60
2019-01-04T05:27:01.719Z,5.83
2019-01-04T05:29:31.207Z,5.50
2019-01-04T05:32:00.524Z,5.20
2019-01-04T05:34:30.198Z,5.47
2019-01-04T05:36:59.694Z,5.63
2019-01-04T05:39:29.207Z,5.40
2019-01-04T05:41:59.160Z,4.87
2019-01-04T05:44:28.686Z,5.00
2019-01-04T05:46:58.214Z,6.37
2019-01-04T05:49:27.981Z,5.73
2019-01-04T05:51:58.396Z,5.10
2019-01-04T05:54:27.992Z,5.47
2019-01-04T05:56:57.534Z,6.00
2019-01-04T05:59:26.915Z,7.13
2019-01-04T06:01:56.723Z,7.43
2019-01-04T06:04:26.233Z,7.30
2019-01-04T06:06:55.863Z,6.90
2019-01-04T06:09:25.695Z,6.90
2019-01-04T06:11:55.075Z,6.63
2019-01-04T06:14:24.684Z,4.73
2019-01-04T06:16:54.337Z,6.50
2019-01-04T06:19:24.416Z,5.63
2019-01-04T06:21:53.915Z,6.03
2019-01-04T06:24:23.467Z,6.20
2019-01-04T06:26:52.742Z,7.50
2019-01-04T06:29:22.371Z,6.33
2019-01-04T06:31:51.668Z,6.33
2019-01-04T06:34:21.269Z,6.47
2019-01-04T06:36:50.647Z,7.40
2019-01-04T06:39:20.073Z,6.10
2019-01-04T06:41:49.510Z,10.20
2019-01-04T06:44:19.163Z,6.97
2019-01-04T06:47:08.662Z,7.17
2019-01-04T06:49:38.256Z,9.27
2019-01-04T06:52:07.940Z,9.93
2019-01-04T06:55:13.582Z,9.67
2019-01-04T06:57:43.063Z,7.40
2019-01-04T07:00:12.591Z,7.80
2019-01-04T07:02:42.721Z,7.27
2019-01-04T07:05:12.374Z,8.20
2019-01-04T07:07:41.981Z,8.07
2019-01-04T07:10:11.559Z,7.60
2019-01-04T07:12:40.944Z,6.77
2019-01-04T07:15:10.356Z,7.80
2019-01-04T07:17:39.712Z,8.90
2019-01-04T07:20:09.237Z,8.33
2019-01-04T07:22:38.603Z,8.20
2019-01-04T07:25:08.148Z,7.87
2019-01-04T07:27:38.022Z,9.30
2019-01-04T07:30:08.599Z,8.07
2019-01-04T07:32:37.987Z,8.97
2019-01-04T07:35:07.849Z,8.20
2019-01-04T07:37:37.383Z,8.50
2019-01-04T07:40:09.017Z,9.03
2019-01-04T07:42:38.909Z,9.37
2019-01-04T07:45:09.546Z,10.67
2019-01-04T07:47:39.247Z,10.40
2019-01-04T07:50:08.649Z,9.27
2019-01-04T07:52:38.184Z,10.97
2019-01-04T07:55:10.539Z,9.40
2019-01-04T07:57:40.113Z,10.10
2019-01-04T08:00:12.823Z,11.10
2019-01-04T08:02:43.218Z,9.90
2019-01-04T08:05:14.992Z,10.80
2019-01-04T08:07:44.511Z,10.93
2019-01-04T08:10:15.022Z,10.40
2019-01-04T08:12:44.627Z,9.97
2019-01-04T08:15:14.151Z,10.03
2019-01-04T08:17:44.788Z,9.57
2019-01-04T08:20:14.217Z,10.73
2019-01-04T08:22:43.575Z,9.47
2019-01-04T08:25:13.390Z,11.60
2019-01-04T08:27:42.911Z,11.83
2019-01-04T08:30:12.575Z,10.17
2019-01-04T08:32:42.042Z,9.07
2019-01-04T08:35:11.650Z,10.63
2019-01-04T08:37:41.092Z,10.70
2019-01-04T08:40:10.803Z,9.63
2019-01-04T08:42:40.312Z,11.80
2019-01-04T08:45:10.160Z,11.00
2019-01-04T08:47:39.511Z,10.80
2019-01-04T08:50:09.196Z,13.93
2019-01-04T08:52:38.889Z,13.23
2019-01-04T08:55:09.651Z,14.13
2019-01-04T08:57:39.240Z,12.77
2019-01-04T09:00:12.046Z,13.37
2019-01-04T09:02:41.544Z,16.47
2019-01-04T09:05:11.075Z,13.13
2019-01-04T09:07:40.553Z,16.27
2019-01-04T09:10:10.232Z,11.10
2019-01-04T09:12:39.634Z,12.03
2019-01-04T09:15:09.250Z,18.50
2019-01-04T09:17:38.655Z,12.87
2019-01-04T09:20:09.147Z,17.47
2019-01-04T09:22:38.745Z,19.33
2019-01-04T09:25:08.902Z,12.90
2019-01-04T09:27:38.960Z,14.60
2019-01-04T09:30:11.062Z,20.33
2019-01-04T09:32:41.521Z,19.47
2019-01-04T09:35:10.991Z,14.90
2019-01-04T09:37:40.352Z,14.07
2019-01-04T09:40:09.887Z,20.73
2019-01-04T09:42:39.366Z,20.33
2019-01-04T09:45:09.405Z,19.43
2019-01-04T09:47:39.162Z,19.00
2019-01-04T09:50:09.071Z,19.67
2019-01-04T09:52:38.631Z,18.47
2019-01-04T09:55:08.943Z,12.13
2019-01-04T09:57:38.651Z,19.00
2019-01-04T10:00:09.858Z,13.80
2019-01-04T10:02:39.197Z,16.87
2019-01-04T10:05:09.148Z,14.50
2019-01-04T10:07:41.659Z,12.87
2019-01-04T10:10:11.189Z,16.70
2019-01-04T10:12:40.870Z,16.07
2019-01-04T10:15:14.907Z,14.93
2019-01-04T10:17:44.285Z,15.47
2019-01-04T10:20:13.679Z,16.97
2019-01-04T10:22:43.125Z,14.80
2019-01-04T10:25:13.617Z,13.83
2019-01-04T10:27:43.093Z,12.37
2019-01-04T10:30:18.358Z,11.07
2019-01-04T10:32:47.799Z,14.67
2019-01-04T10:35:17.302Z,9.83
2019-01-04T10:37:46.611Z,10.87
2019-01-04T10:40:16.027Z,11.43
2019-01-04T10:42:45.478Z,11.03
2019-01-04T10:45:14.783Z,10.33
2019-01-04T10:47:45.223Z,13.03
2019-01-04T10:50:14.658Z,13.53
2019-01-04T10:52:44.062Z,15.23
2019-01-04T10:55:13.379Z,13.83
2019-01-04T10:57:42.834Z,18.60
2019-01-04T11:00:12.746Z,13.40
2019-01-04T11:02:42.210Z,17.73
2019-01-04T11:05:11.664Z,17.17
2019-01-04T11:07:41.519Z,18.30
2019-01-04T11:10:14.172Z,16.07
2019-01-04T11:12:44.856Z,15.13
2019-01-04T11:15:14.231Z,10.33
2019-01-04T11:17:43.615Z,16.10
2019-01-04T11:20:41.429Z,16.10
2019-01-04T11:23:43.100Z,15.43
2019-01-04T11:26:24.778Z,14.17
2019-01-04T11:29:03.267Z,15.50
2019-01-04T11:31:53.962Z,16.20
2019-01-04T11:34:32.207Z,14.63
2019-01-04T11:37:19.957Z,10.20
2019-01-04T11:40:12.131Z,16.17
2019-01-04T11:43:11.250Z,16.17
2019-01-04T11:45:46.973Z,12.43
2019-01-04T11:48:31.834Z,16.57
2019-01-04T11:51:13.370Z,12.47
2019-01-04T11:53:42.827Z,17.23
2019-01-04T11:56:12.200Z,17.50
2019-01-04T11:58:41.631Z,15.47
2019-01-04T12:01:11.149Z,16.63
2019-01-04T12:03:40.879Z,8.73
2019-01-04T12:06:10.317Z,9.37
2019-01-04T12:08:39.786Z,14.47
2019-01-04T12:11:09.402Z,20.83
2019-01-04T12:13:38.998Z,19.17
2019-01-04T12:16:08.404Z,18.87
2019-01-04T12:18:37.735Z,17.83
2019-01-04T12:21:07.128Z,18.67
2019-01-04T12:23:36.451Z,8.90
2019-01-04T12:26:05.854Z,18.37
2019-01-04T12:28:35.285Z,18.00
2019-01-04T12:31:04.690Z,18.83
2019-01-04T12:33:34.168Z,12.67
2019-01-04T12:36:05.334Z,13.83
2019-01-04T12:38:34.945Z,11.10
2019-01-04T12:41:04.332Z,11.97
2019-01-04T12:43:33.756Z,16.53
2019-01-04T12:46:03.204Z,9.37
2019-01-04T12:48:32.618Z,17.63
2019-01-04T12:51:02.118Z,10.00
2019-01-04T12:53:31.626Z,16.80
2019-01-04T12:56:01.057Z,14.20
2019-01-04T12:58:30.639Z,21.67
2019-01-04T13:00:59.963Z,18.67
2019-01-04T13:03:29.384Z,20.03
2019-01-04T13:05:58.807Z,24.07
2019-01-04T13:08:28.147Z,24.20
2019-01-04T13:10:57.934Z,24.10
2019-01-04T13:13:27.451Z,22.43
2019-01-04T13:15:56.819Z,24.97
2019-01-04T13:18:26.191Z,14.83
2019-01-04T13:20:55.748Z,26.37
2019-01-04T13:23:25.055Z,19.13
2019-01-04T13:25:54.567Z,20.00
2019-01-04T13:28:23.954Z,27.00
2019-01-04T13:30:53.338Z,27.97
2019-01-04T13:33:22.911Z,27.03
2019-01-04T13:35:52.386Z,22.60
2019-01-04T13:38:21.788Z,27.43
2019-01-04T13:40:51.219Z,19.37
2019-01-04T13:43:20.532Z,26.77
2019-01-04T13:45:50.021Z,13.53
2019-01-04T13:48:19.721Z,23.63
2019-01-04T13:50:50.239Z,28.30
2019-01-04T13:53:19.720Z,23.00
2019-01-04T13:55:49.339Z,22.07
2019-01-04T13:58:18.774Z,32.23
2019-01-04T14:00:48.236Z,30.40
2019-01-04T14:03:17.918Z,31.33
2019-01-04T14:05:47.845Z,29.80
2019-01-04T14:08:17.835Z,24.00
2019-01-04T14:10:47.289Z,26.37
2019-01-04T14:13:16.856Z,27.80
2019-01-04T14:15:46.370Z,15.40
2019-01-04T14:18:15.807Z,30.47
2019-01-04T14:20:45.487Z,25.10
2019-01-04T14:23:14.937Z,33.90
2019-01-04T14:25:44.238Z,28.87
2019-01-04T14:28:13.596Z,24.17
2019-01-04T14:30:43.048Z,24.27
2019-01-04T14:33:12.554Z,21.77
2019-01-04T14:35:41.986Z,29.03
2019-01-04T14:38:11.749Z,29.73
2019-01-04T14:40:41.145Z,34.73
2019-01-04T14:43:10.695Z,27.80
2019-01-04T14:45:40.107Z,22.93
2019-01-04T14:48:09.644Z,22.30
2019-01-04T14:50:39.081Z,27.43
2019-01-04T14:53:08.496Z,22.47
2019-01-04T14:55:38.152Z,21.13
2019-01-04T14:58:07.679Z,22.40
2019-01-04T15:00:37.119Z,24.50
2019-01-04T15:03:06.511Z,18.57
2019-01-04T15:05:36.148Z,25.60
2019-01-04T15:08:05.533Z,27.07
2019-01-04T15:10:36.331Z,19.07
2019-01-04T15:13:05.704Z,16.73
2019-01-04T15:15:35.200Z,15.83
2019-01-04T15:18:04.518Z,16.17
2019-01-04T15:20:33.979Z,22.93
2019-01-04T15:23:03.706Z,14.33
2019-01-04T15:25:33.238Z,17.50
2019-01-04T15:28:02.674Z,22.83
2019-01-04T15:30:33.913Z,22.77
2019-01-04T15:33:03.333Z,30.43
2019-01-04T15:35:32.734Z,30.47
2019-01-04T15:38:02.248Z,18.57
2019-01-04T15:40:31.839Z,13.37
2019-01-04T15:43:01.347Z,15.63
2019-01-04T15:45:30.835Z,17.63
2019-01-04T15:48:00.331Z,16.90
2019-01-04T15:50:29.882Z,20.83
2019-01-04T15:53:01.319Z,18.53
2019-01-04T15:55:30.903Z,18.63
2019-01-04T15:58:00.346Z,18.43
2019-01-04T16:00:29.715Z,10.33
2019-01-04T16:02:59.174Z,16.07
2019-01-04T16:05:28.722Z,14.07
2019-01-04T16:07:58.705Z,17.97
2019-01-04T16:10:28.025Z,19.80
2019-01-04T16:12:57.440Z,17.77
2019-01-04T16:15:28.534Z,11.70
2019-01-04T16:17:57.948Z,17.47
2019-01-04T16:20:27.556Z,12.50
2019-01-04T16:22:57.165Z,9.93
2019-01-04T16:25:26.573Z,17.03
2019-01-04T16:27:56.065Z,14.17
2019-01-04T16:30:25.835Z,17.47
2019-01-04T16:32:55.720Z,19.67
2019-01-04T16:35:25.285Z,17.73
2019-01-04T16:37:55.183Z,19.27
2019-01-04T16:40:24.613Z,16.33
2019-01-04T16:42:54.412Z,18.50
2019-01-04T16:45:23.880Z,19.70
2019-01-04T16:47:55.621Z,17.40
2019-01-04T16:50:25.431Z,20.30
2019-01-04T16:52:59.420Z,20.43
2019-01-04T16:55:26.175Z,20.70
2019-01-04T16:57:55.577Z,18.43
2019-01-04T17:00:25.314Z,21.07
2019-01-04T17:02:55.039Z,23.83
2019-01-04T17:05:24.776Z,22.87
2019-01-04T17:07:54.157Z,13.70
2019-01-04T17:10:23.881Z,22.30
2019-01-04T17:12:53.482Z,19.23
2019-01-04T17:15:23.461Z,18.50
2019-01-04T17:17:52.792Z,20.17
2019-01-04T17:20:22.389Z,21.30
2019-01-04T17:22:52.335Z,20.53
2019-01-04T17:25:21.730Z,19.17
2019-01-04T17:27:51.132Z,20.23
2019-01-04T17:30:20.662Z,19.53
2019-01-04T17:32:50.065Z,23.47
2019-01-04T17:35:19.402Z,21.90
2019-01-04T17:37:49.459Z,16.93
2019-01-04T17:40:19.224Z,14.57
2019-01-04T17:42:49.085Z,12.33
2019-01-04T17:45:18.903Z,16.27
2019-01-04T17:47:48.735Z,16.60
2019-01-04T17:50:18.619Z,22.87
2019-01-04T17:52:48.093Z,16.67
2019-01-04T17:55:18.143Z,18.30
2019-01-04T17:57:47.981Z,22.13
2019-01-04T18:00:17.975Z,19.13
2019-01-04T18:02:47.762Z,22.30
2019-01-04T18:05:17.580Z,17.87
2019-01-04T18:07:47.383Z,11.30
2019-01-04T18:10:16.930Z,21.27
2019-01-04T18:12:46.694Z,24.17
2019-01-04T18:15:16.154Z,20.00
2019-01-04T18:17:45.586Z,27.23
2019-01-04T18:20:15.099Z,24.80
2019-01-04T18:22:44.519Z,26.00
2019-01-04T18:25:14.141Z,27.03
2019-01-04T18:27:44.077Z,26.17
2019-01-04T18:30:13.798Z,23.73
2019-01-04T18:32:43.199Z,19.43
2019-01-04T18:35:13.043Z,18.97
2019-01-04T18:37:42.723Z,24.03
2019-01-04T18:40:12.166Z,23.63
2019-01-04T18:42:41.609Z,25.57
2019-01-04T18:45:11.092Z,22.30
2019-01-04T18:47:41.038Z,22.50
2019-01-04T18:50:12.770Z,19.90
2019-01-04T18:52:42.125Z,24.53
2019-01-04T18:55:11.913Z,23.90
2019-01-04T18:57:41.476Z,19.73
2019-01-04T19:00:11.864Z,25.50
2019-01-04T19:02:41.503Z,26.07
2019-01-04T19:05:11.406Z,19.57
2019-01-04T19:07:40.881Z,26.80
2019-01-04T19:10:10.310Z,28.00
2019-01-04T19:12:40.455Z,21.47
2019-01-04T19:15:10.740Z,26.03
2019-01-04T19:17:40.376Z,27.37
2019-01-04T19:20:09.970Z,26.40
2019-01-04T19:22:39.419Z,25.47
2019-01-04T19:25:09.290Z,28.67
2019-01-04T19:27:38.686Z,24.27
2019-01-04T19:30:08.844Z,19.63
2019-01-04T19:32:38.727Z,21.73
2019-01-04T19:35:08.063Z,25.63
2019-01-04T19:37:38.803Z,22.60
2019-01-04T19:40:09.766Z,22.97
2019-01-04T19:42:39.308Z,26.40
2019-01-04T19:45:08.668Z,23.63
2019-01-04T19:47:38.533Z,29.33
2019-01-04T19:50:16.431Z,30.07
2019-01-04T19:52:46.062Z,25.23
2019-01-04T19:55:16.659Z,22.33
2019-01-04T19:57:47.084Z,24.87
2019-01-04T20:00:17.077Z,24.47
2019-01-04T20:02:47.857Z,29.50
2019-01-04T20:05:25.543Z,27.93
2019-01-04T20:08:24.340Z,25.67
2019-01-04T20:11:48.415Z,28.13
2019-01-04T20:14:58.495Z,24.03
2019-01-04T20:17:29.860Z,24.20
2019-01-04T20:20:03.767Z,30.33
2019-01-04T20:22:51.226Z,29.77
2019-01-04T20:25:43.758Z,26.23
2019-01-04T20:28:21.310Z,27.67
2019-01-04T20:31:01.432Z,31.23
2019-01-04T20:33:49.344Z,15.57
2019-01-04T20:36:36.842Z,26.00
2019-01-04T20:39:26.406Z,27.03
2019-01-04T20:42:14.236Z,27.60
2019-01-04T20:45:01.844Z,28.23
2019-01-04T20:47:49.425Z,28.43
2019-01-04T20:50:36.028Z,30.17
2019-01-04T20:53:23.504Z,29.33
2019-01-04T20:56:13.165Z,28.00
2019-01-04T20:58:44.296Z,29.13
2019-01-04T21:01:18.450Z,29.30
2019-01-04T21:03:55.767Z,29.77
2019-01-04T21:06:42.520Z,30.37
2019-01-04T21:09:29.843Z,31.67
2019-01-04T21:12:16.889Z,23.83
2019-01-04T21:14:57.223Z,32.17
2019-01-04T21:17:34.745Z,30.20
2019-01-04T21:20:18.373Z,26.33
2019-01-04T21:22:55.240Z,30.27
2019-01-04T21:25:26.572Z,27.00
2019-01-04T21:27:58.399Z,26.63
2019-01-04T21:30:32.430Z,27.90
2019-01-04T21:33:06.280Z,31.83
2019-01-04T21:35:53.364Z,27.03
2019-01-04T21:38:30.715Z,30.17
2019-01-04T21:41:11.009Z,33.97
2019-01-04T21:43:48.091Z,20.63
2019-01-04T21:46:34.062Z,23.20
2019-01-04T21:49:21.678Z,32.50
2019-01-04T21:51:53.094Z,24.20
2019-01-04T21:54:27.829Z,24.97
2019-01-04T21:57:15.662Z,32.23
2019-01-04T22:00:02.932Z,33.77
2019-01-04T22:02:36.947Z,35.67
2019-01-04T22:05:16.944Z,26.70
2019-01-04T22:07:48.214Z,31.20
2019-01-04T22:10:32.011Z,22.23
2019-01-04T22:13:19.550Z,36.00
2019-01-04T22:15:54.582Z,31.37
2019-01-04T22:18:42.324Z,34.37
2019-01-04T22:21:25.883Z,34.63
2019-01-04T22:24:09.052Z,29.77
2019-01-04T22:26:57.103Z,34.53
2019-01-04T22:29:28.204Z,29.90
2019-01-04T22:32:11.787Z,32.53
2019-01-04T22:34:59.165Z,29.37
2019-01-04T22:37:47.026Z,33.70
2019-01-04T22:40:18.055Z,31.10
2019-01-04T22:42:55.200Z,25.53
2019-01-04T22:45:32.388Z,36.20
2019-01-04T22:48:05.807Z,29.03
2019-01-04T22:50:52.618Z,32.90
2019-01-04T22:53:29.688Z,26.97
2019-01-04T22:56:17.073Z,34.83
2019-01-04T22:59:00.160Z,25.53
2019-01-04T23:01:37.030Z,29.93
2019-01-04T23:04:16.699Z,33.27
2019-01-04T23:07:02.664Z,31.23
2019-01-04T23:09:39.706Z,38.27
2019-01-04T23:12:13.615Z,23.07
2019-01-04T23:14:50.821Z,28.47
2019-01-04T23:17:21.843Z,27.90
2019-01-04T23:19:55.856Z,28.43
2019-01-04T23:22:49.221Z,24.50
2019-01-04T23:25:25.905Z,30.80
2019-01-04T23:28:13.466Z,31.10
2019-01-04T23:30:50.999Z,23.03
2019-01-04T23:33:24.732Z,28.30
2019-01-04T23:36:04.963Z,36.23
2019-01-04T23:38:36.065Z,22.60
2019-01-04T23:41:19.245Z,32.10
2019-01-04T23:43:50.300Z,33.80
2019-01-04T23:46:24.722Z,10.33
2019-01-04T23:49:14.019Z,31.17
2019-01-04T23:51:45.428Z,34.87
2019-01-04T23:54:31.534Z,25.60
2019-01-04T23:57:19.078Z,32.70
